sensor_id;sensor_type;location;lat;lon;timestamp;temperature;humidity
15900;DHT22;8048;50.644;6.184;2023-06-14T00:02:12;15.20;76.20
15900;DHT22;8048;50.644;6.184;2023-06-14T00:04:38;15.10;76.80
15900;DHT22;8048;50.644;6.184;2023-06-14T00:07:05;15.10;76.80
15900;DHT22;8048;50.644;6.184;2023-06-14T00:09:34;15.10;76.90
15900;DHT22;8048;50.644;6.184;2023-06-14T00:12:00;15.10;77.00
15900;DHT22;8048;50.644;6.184;2023-06-14T00:14:25;15.10;77.30
15900;DHT22;8048;50.644;6.184;2023-06-14T00:16:51;15.00;76.80
15900;DHT22;8048;50.644;6.184;2023-06-14T00:19:18;15.00;76.90
15900;DHT22;8048;50.644;6.184;2023-06-14T00:21:45;15.00;77.10
15900;DHT22;8048;50.644;6.184;2023-06-14T00:24:11;14.90;76.40
15900;DHT22;8048;50.644;6.184;2023-06-14T00:26:36;14.90;76.00
15900;DHT22;8048;50.644;6.184;2023-06-14T00:29:02;14.90;75.70
15900;DHT22;8048;50.644;6.184;2023-06-14T00:31:27;14.90;75.50
15900;DHT22;8048;50.644;6.184;2023-06-14T00:33:53;14.90;75.00
15900;DHT22;8048;50.644;6.184;2023-06-14T00:36:19;14.90;75.50
15900;DHT22;8048;50.644;6.184;2023-06-14T00:38:44;14.90;75.30
15900;DHT22;8048;50.644;6.184;2023-06-14T00:41:10;15.00;75.00
15900;DHT22;8048;50.644;6.184;2023-06-14T00:43:35;15.00;74.70
15900;DHT22;8048;50.644;6.184;2023-06-14T00:46:01;14.90;74.50
15900;DHT22;8048;50.644;6.184;2023-06-14T00:48:27;14.90;74.80
15900;DHT22;8048;50.644;6.184;2023-06-14T00:50:54;15.00;74.30
15900;DHT22;8048;50.644;6.184;2023-06-14T00:53:20;15.00;74.30
15900;DHT22;8048;50.644;6.184;2023-06-14T00:55:48;15.00;74.10
15900;DHT22;8048;50.644;6.184;2023-06-14T00:58:14;14.90;73.80
15900;DHT22;8048;50.644;6.184;2023-06-14T01:00:40;14.90;73.20
15900;DHT22;8048;50.644;6.184;2023-06-14T01:03:05;14.90;73.10
15900;DHT22;8048;50.644;6.184;2023-06-14T01:05:31;14.90;73.40
15900;DHT22;8048;50.644;6.184;2023-06-14T01:11:02;14.90;73.20
15900;DHT22;8048;50.644;6.184;2023-06-14T01:13:34;14.90;73.20
15900;DHT22;8048;50.644;6.184;2023-06-14T01:16:02;14.90;73.10
15900;DHT22;8048;50.644;6.184;2023-06-14T01:18:28;14.80;73.30
15900;DHT22;8048;50.644;6.184;2023-06-14T01:20:55;14.80;73.50
15900;DHT22;8048;50.644;6.184;2023-06-14T01:23:22;14.80;72.90
15900;DHT22;8048;50.644;6.184;2023-06-14T01:25:48;14.80;73.30
15900;DHT22;8048;50.644;6.184;2023-06-14T01:28:19;14.80;73.20
15900;DHT22;8048;50.644;6.184;2023-06-14T01:30:49;14.80;72.90
15900;DHT22;8048;50.644;6.184;2023-06-14T01:33:21;14.80;73.10
15900;DHT22;8048;50.644;6.184;2023-06-14T01:35:49;14.80;73.20
15900;DHT22;8048;50.644;6.184;2023-06-14T01:38:17;14.90;72.80
15900;DHT22;8048;50.644;6.184;2023-06-14T01:40:44;14.80;73.20
15900;DHT22;8048;50.644;6.184;2023-06-14T01:43:14;14.80;72.70
15900;DHT22;8048;50.644;6.184;2023-06-14T01:45:42;14.70;73.40
15900;DHT22;8048;50.644;6.184;2023-06-14T01:48:11;14.70;72.80
15900;DHT22;8048;50.644;6.184;2023-06-14T01:50:36;14.70;73.30
15900;DHT22;8048;50.644;6.184;2023-06-14T01:53:03;14.60;73.40
15900;DHT22;8048;50.644;6.184;2023-06-14T01:55:29;14.60;73.80
15900;DHT22;8048;50.644;6.184;2023-06-14T01:57:54;14.60;74.10
15900;DHT22;8048;50.644;6.184;2023-06-14T02:00:20;14.70;74.90
15900;DHT22;8048;50.644;6.184;2023-06-14T02:02:47;14.70;75.40
15900;DHT22;8048;50.644;6.184;2023-06-14T02:05:13;14.60;75.70
15900;DHT22;8048;50.644;6.184;2023-06-14T02:07:39;14.60;75.70
15900;DHT22;8048;50.644;6.184;2023-06-14T02:10:05;14.70;75.90
15900;DHT22;8048;50.644;6.184;2023-06-14T02:12:31;14.70;75.40
15900;DHT22;8048;50.644;6.184;2023-06-14T02:14:56;14.60;74.20
15900;DHT22;8048;50.644;6.184;2023-06-14T02:17:23;14.50;73.60
15900;DHT22;8048;50.644;6.184;2023-06-14T02:19:48;14.50;74.30
15900;DHT22;8048;50.644;6.184;2023-06-14T02:22:15;14.40;74.30
15900;DHT22;8048;50.644;6.184;2023-06-14T02:24:41;14.40;74.10
15900;DHT22;8048;50.644;6.184;2023-06-14T02:27:07;14.40;73.80
15900;DHT22;8048;50.644;6.184;2023-06-14T02:29:35;14.40;74.10
15900;DHT22;8048;50.644;6.184;2023-06-14T02:32:01;14.40;74.20
15900;DHT22;8048;50.644;6.184;2023-06-14T02:34:26;14.40;75.20
15900;DHT22;8048;50.644;6.184;2023-06-14T02:36:52;14.30;76.10
15900;DHT22;8048;50.644;6.184;2023-06-14T02:39:18;14.30;77.10
15900;DHT22;8048;50.644;6.184;2023-06-14T02:41:46;14.20;77.50
15900;DHT22;8048;50.644;6.184;2023-06-14T02:44:13;14.10;76.90
15900;DHT22;8048;50.644;6.184;2023-06-14T02:46:39;14.10;77.50
15900;DHT22;8048;50.644;6.184;2023-06-14T02:49:05;14.00;77.50
15900;DHT22;8048;50.644;6.184;2023-06-14T02:51:30;14.00;78.10
15900;DHT22;8048;50.644;6.184;2023-06-14T02:53:56;13.90;78.80
15900;DHT22;8048;50.644;6.184;2023-06-14T02:56:21;13.80;78.60
15900;DHT22;8048;50.644;6.184;2023-06-14T02:58:48;13.70;79.10
15900;DHT22;8048;50.644;6.184;2023-06-14T03:01:14;13.60;78.70
15900;DHT22;8048;50.644;6.184;2023-06-14T03:03:40;13.60;79.60
15900;DHT22;8048;50.644;6.184;2023-06-14T03:06:05;13.60;80.60
15900;DHT22;8048;50.644;6.184;2023-06-14T03:08:32;13.50;80.90
15900;DHT22;8048;50.644;6.184;2023-06-14T03:11:04;13.40;81.20
15900;DHT22;8048;50.644;6.184;2023-06-14T03:13:30;13.30;81.40
15900;DHT22;8048;50.644;6.184;2023-06-14T03:15:57;13.30;82.00
15900;DHT22;8048;50.644;6.184;2023-06-14T03:18:23;13.20;81.80
15900;DHT22;8048;50.644;6.184;2023-06-14T03:20:48;13.20;82.20
15900;DHT22;8048;50.644;6.184;2023-06-14T03:23:14;13.20;82.90
15900;DHT22;8048;50.644;6.184;2023-06-14T03:25:39;13.20;83.20
15900;DHT22;8048;50.644;6.184;2023-06-14T03:28:07;13.10;82.90
15900;DHT22;8048;50.644;6.184;2023-06-14T03:30:33;13.10;82.80
15900;DHT22;8048;50.644;6.184;2023-06-14T03:32:58;13.10;83.00
15900;DHT22;8048;50.644;6.184;2023-06-14T03:35:26;13.10;83.20
15900;DHT22;8048;50.644;6.184;2023-06-14T03:37:52;13.10;83.60
15900;DHT22;8048;50.644;6.184;2023-06-14T03:40:18;13.00;83.60
15900;DHT22;8048;50.644;6.184;2023-06-14T03:42:45;13.00;83.80
15900;DHT22;8048;50.644;6.184;2023-06-14T03:45:10;13.00;83.80
15900;DHT22;8048;50.644;6.184;2023-06-14T03:47:36;13.00;84.10
15900;DHT22;8048;50.644;6.184;2023-06-14T03:50:02;12.90;84.00
15900;DHT22;8048;50.644;6.184;2023-06-14T03:52:29;13.00;84.20
15900;DHT22;8048;50.644;6.184;2023-06-14T03:54:54;13.00;84.10
15900;DHT22;8048;50.644;6.184;2023-06-14T03:57:21;13.10;84.10
15900;DHT22;8048;50.644;6.184;2023-06-14T03:59:47;13.00;84.20
15900;DHT22;8048;50.644;6.184;2023-06-14T04:02:12;13.00;84.40
15900;DHT22;8048;50.644;6.184;2023-06-14T04:04:41;13.00;84.40
15900;DHT22;8048;50.644;6.184;2023-06-14T04:07:12;13.10;84.40
15900;DHT22;8048;50.644;6.184;2023-06-14T04:09:38;13.10;84.70
15900;DHT22;8048;50.644;6.184;2023-06-14T04:12:05;13.10;85.40
15900;DHT22;8048;50.644;6.184;2023-06-14T04:14:31;13.10;85.30
15900;DHT22;8048;50.644;6.184;2023-06-14T04:16:58;13.20;85.40
15900;DHT22;8048;50.644;6.184;2023-06-14T04:19:24;13.20;85.60
15900;DHT22;8048;50.644;6.184;2023-06-14T04:21:49;13.20;86.30
15900;DHT22;8048;50.644;6.184;2023-06-14T04:24:15;13.30;86.00
15900;DHT22;8048;50.644;6.184;2023-06-14T04:26:42;13.40;86.30
15900;DHT22;8048;50.644;6.184;2023-06-14T04:29:10;13.50;85.60
15900;DHT22;8048;50.644;6.184;2023-06-14T04:31:39;13.60;85.30
15900;DHT22;8048;50.644;6.184;2023-06-14T04:34:05;13.60;84.80
15900;DHT22;8048;50.644;6.184;2023-06-14T04:36:32;13.70;85.00
15900;DHT22;8048;50.644;6.184;2023-06-14T04:39:03;13.80;86.30
15900;DHT22;8048;50.644;6.184;2023-06-14T04:41:30;13.90;86.30
15900;DHT22;8048;50.644;6.184;2023-06-14T04:43:57;13.90;86.50
15900;DHT22;8048;50.644;6.184;2023-06-14T04:46:24;13.90;86.60
15900;DHT22;8048;50.644;6.184;2023-06-14T04:48:49;14.00;85.20
15900;DHT22;8048;50.644;6.184;2023-06-14T04:51:16;14.10;84.70
15900;DHT22;8048;50.644;6.184;2023-06-14T04:53:41;14.20;83.50
15900;DHT22;8048;50.644;6.184;2023-06-14T04:56:09;14.30;83.90
15900;DHT22;8048;50.644;6.184;2023-06-14T04:58:35;14.40;84.40
15900;DHT22;8048;50.644;6.184;2023-06-14T05:01:01;14.50;84.10
15900;DHT22;8048;50.644;6.184;2023-06-14T05:03:26;14.60;86.10
15900;DHT22;8048;50.644;6.184;2023-06-14T05:05:52;14.60;86.20
15900;DHT22;8048;50.644;6.184;2023-06-14T05:08:19;14.70;85.70
15900;DHT22;8048;50.644;6.184;2023-06-14T05:10:45;14.80;85.90
15900;DHT22;8048;50.644;6.184;2023-06-14T05:13:11;14.80;85.80
15900;DHT22;8048;50.644;6.184;2023-06-14T05:15:36;14.90;85.60
15900;DHT22;8048;50.644;6.184;2023-06-14T05:18:02;15.00;86.40
15900;DHT22;8048;50.644;6.184;2023-06-14T05:20:28;15.10;85.10
15900;DHT22;8048;50.644;6.184;2023-06-14T05:22:54;15.20;89.60
15900;DHT22;8048;50.644;6.184;2023-06-14T05:25:20;15.20;86.80
15900;DHT22;8048;50.644;6.184;2023-06-14T05:27:46;15.30;87.80
15900;DHT22;8048;50.644;6.184;2023-06-14T05:30:13;15.30;82.40
15900;DHT22;8048;50.644;6.184;2023-06-14T05:32:39;15.60;86.50
15900;DHT22;8048;50.644;6.184;2023-06-14T05:35:05;15.70;83.50
15900;DHT22;8048;50.644;6.184;2023-06-14T05:37:31;15.70;81.90
15900;DHT22;8048;50.644;6.184;2023-06-14T05:39:57;15.70;79.10
15900;DHT22;8048;50.644;6.184;2023-06-14T05:42:22;15.80;80.70
15900;DHT22;8048;50.644;6.184;2023-06-14T05:44:48;15.90;79.80
15900;DHT22;8048;50.644;6.184;2023-06-14T05:47:13;16.00;79.10
15900;DHT22;8048;50.644;6.184;2023-06-14T05:49:39;16.10;78.50
15900;DHT22;8048;50.644;6.184;2023-06-14T05:52:05;16.20;78.40
15900;DHT22;8048;50.644;6.184;2023-06-14T05:54:31;16.20;78.10
15900;DHT22;8048;50.644;6.184;2023-06-14T05:56:56;16.30;76.20
15900;DHT22;8048;50.644;6.184;2023-06-14T05:59:29;16.40;76.20
15900;DHT22;8048;50.644;6.184;2023-06-14T06:01:55;16.50;76.20
15900;DHT22;8048;50.644;6.184;2023-06-14T06:04:20;16.60;72.90
15900;DHT22;8048;50.644;6.184;2023-06-14T06:06:46;16.70;71.90
15900;DHT22;8048;50.644;6.184;2023-06-14T06:09:13;17.30;85.00
15900;DHT22;8048;50.644;6.184;2023-06-14T06:11:40;18.00;82.40
15900;DHT22;8048;50.644;6.184;2023-06-14T06:14:05;18.50;74.10
15900;DHT22;8048;50.644;6.184;2023-06-14T06:16:31;19.00;72.90
15900;DHT22;8048;50.644;6.184;2023-06-14T06:18:57;19.40;72.00
15900;DHT22;8048;50.644;6.184;2023-06-14T06:21:22;19.70;68.50
15900;DHT22;8048;50.644;6.184;2023-06-14T06:23:48;20.00;64.80
15900;DHT22;8048;50.644;6.184;2023-06-14T06:26:13;20.20;66.40
15900;DHT22;8048;50.644;6.184;2023-06-14T06:28:39;20.30;64.70
15900;DHT22;8048;50.644;6.184;2023-06-14T06:31:05;20.50;62.90
15900;DHT22;8048;50.644;6.184;2023-06-14T06:33:30;20.50;63.10
15900;DHT22;8048;50.644;6.184;2023-06-14T06:35:56;20.60;61.40
15900;DHT22;8048;50.644;6.184;2023-06-14T06:38:21;20.70;62.60
15900;DHT22;8048;50.644;6.184;2023-06-14T06:40:47;20.80;62.00
15900;DHT22;8048;50.644;6.184;2023-06-14T06:43:12;20.70;59.60
15900;DHT22;8048;50.644;6.184;2023-06-14T06:45:43;20.70;59.30
15900;DHT22;8048;50.644;6.184;2023-06-14T06:48:08;20.60;59.80
15900;DHT22;8048;50.644;6.184;2023-06-14T06:50:37;20.50;58.60
15900;DHT22;8048;50.644;6.184;2023-06-14T06:53:02;20.30;58.50
15900;DHT22;8048;50.644;6.184;2023-06-14T06:55:28;20.20;59.20
15900;DHT22;8048;50.644;6.184;2023-06-14T06:57:53;20.00;58.30
15900;DHT22;8048;50.644;6.184;2023-06-14T07:00:20;19.90;58.40
15900;DHT22;8048;50.644;6.184;2023-06-14T07:02:45;19.80;57.10
15900;DHT22;8048;50.644;6.184;2023-06-14T07:05:11;19.70;58.60
15900;DHT22;8048;50.644;6.184;2023-06-14T07:07:36;19.70;59.50
15900;DHT22;8048;50.644;6.184;2023-06-14T07:10:03;19.80;59.60
15900;DHT22;8048;50.644;6.184;2023-06-14T07:12:33;19.80;59.60
15900;DHT22;8048;50.644;6.184;2023-06-14T07:14:59;19.90;59.10
15900;DHT22;8048;50.644;6.184;2023-06-14T07:17:25;19.90;59.60
15900;DHT22;8048;50.644;6.184;2023-06-14T07:19:51;20.00;59.50
15900;DHT22;8048;50.644;6.184;2023-06-14T07:22:17;20.00;58.70
15900;DHT22;8048;50.644;6.184;2023-06-14T07:24:43;20.00;59.10
15900;DHT22;8048;50.644;6.184;2023-06-14T07:27:08;20.10;58.90
15900;DHT22;8048;50.644;6.184;2023-06-14T07:29:34;20.20;59.10
15900;DHT22;8048;50.644;6.184;2023-06-14T07:32:00;20.20;59.10
15900;DHT22;8048;50.644;6.184;2023-06-14T07:34:25;20.30;59.70
15900;DHT22;8048;50.644;6.184;2023-06-14T07:36:51;20.40;59.40
15900;DHT22;8048;50.644;6.184;2023-06-14T07:39:17;20.50;58.70
15900;DHT22;8048;50.644;6.184;2023-06-14T07:41:42;20.60;57.80
15900;DHT22;8048;50.644;6.184;2023-06-14T07:44:08;20.60;57.60
15900;DHT22;8048;50.644;6.184;2023-06-14T07:46:33;20.70;57.80
15900;DHT22;8048;50.644;6.184;2023-06-14T07:49:00;20.70;58.20
15900;DHT22;8048;50.644;6.184;2023-06-14T07:51:25;20.80;56.70
15900;DHT22;8048;50.644;6.184;2023-06-14T07:53:51;20.80;56.80
15900;DHT22;8048;50.644;6.184;2023-06-14T07:56:16;20.90;58.00
15900;DHT22;8048;50.644;6.184;2023-06-14T07:58:42;21.00;57.30
15900;DHT22;8048;50.644;6.184;2023-06-14T08:01:08;21.10;57.90
15900;DHT22;8048;50.644;6.184;2023-06-14T08:03:34;21.30;57.20
15900;DHT22;8048;50.644;6.184;2023-06-14T08:06:00;21.30;56.30
15900;DHT22;8048;50.644;6.184;2023-06-14T08:08:26;21.40;56.40
15900;DHT22;8048;50.644;6.184;2023-06-14T08:10:52;21.40;56.00
15900;DHT22;8048;50.644;6.184;2023-06-14T08:13:17;21.40;56.40
15900;DHT22;8048;50.644;6.184;2023-06-14T08:15:43;21.60;57.80
15900;DHT22;8048;50.644;6.184;2023-06-14T08:18:09;21.80;56.60
15900;DHT22;8048;50.644;6.184;2023-06-14T08:20:34;22.00;57.30
15900;DHT22;8048;50.644;6.184;2023-06-14T08:23:02;22.20;57.10
15900;DHT22;8048;50.644;6.184;2023-06-14T08:25:27;22.30;55.80
15900;DHT22;8048;50.644;6.184;2023-06-14T08:27:53;22.40;55.80
15900;DHT22;8048;50.644;6.184;2023-06-14T08:30:18;22.50;56.30
15900;DHT22;8048;50.644;6.184;2023-06-14T08:32:44;22.70;55.80
15900;DHT22;8048;50.644;6.184;2023-06-14T08:35:10;22.90;56.30
15900;DHT22;8048;50.644;6.184;2023-06-14T08:37:39;23.10;55.30
15900;DHT22;8048;50.644;6.184;2023-06-14T08:40:17;23.40;56.10
15900;DHT22;8048;50.644;6.184;2023-06-14T08:42:44;23.60;55.90
15900;DHT22;8048;50.644;6.184;2023-06-14T08:45:10;23.70;55.40
15900;DHT22;8048;50.644;6.184;2023-06-14T08:47:36;23.80;54.00
15900;DHT22;8048;50.644;6.184;2023-06-14T08:50:03;23.70;52.90
15900;DHT22;8048;50.644;6.184;2023-06-14T08:52:31;23.70;53.70
15900;DHT22;8048;50.644;6.184;2023-06-14T08:54:59;23.70;54.70
15900;DHT22;8048;50.644;6.184;2023-06-14T08:57:26;23.90;53.30
15900;DHT22;8048;50.644;6.184;2023-06-14T08:59:56;23.90;53.70
15900;DHT22;8048;50.644;6.184;2023-06-14T09:02:22;23.70;53.30
15900;DHT22;8048;50.644;6.184;2023-06-14T09:04:47;23.70;53.40
15900;DHT22;8048;50.644;6.184;2023-06-14T09:07:15;24.10;53.40
15900;DHT22;8048;50.644;6.184;2023-06-14T09:09:41;24.30;53.00
15900;DHT22;8048;50.644;6.184;2023-06-14T09:12:11;24.50;51.80
15900;DHT22;8048;50.644;6.184;2023-06-14T09:14:37;24.70;51.60
15900;DHT22;8048;50.644;6.184;2023-06-14T09:17:05;24.90;51.80
15900;DHT22;8048;50.644;6.184;2023-06-14T09:19:31;25.10;50.80
15900;DHT22;8048;50.644;6.184;2023-06-14T09:21:56;25.10;51.30
15900;DHT22;8048;50.644;6.184;2023-06-14T09:24:24;25.40;50.50
15900;DHT22;8048;50.644;6.184;2023-06-14T09:26:51;25.60;50.30
15900;DHT22;8048;50.644;6.184;2023-06-14T09:29:17;25.90;49.60
15900;DHT22;8048;50.644;6.184;2023-06-14T09:31:45;26.10;49.80
15900;DHT22;8048;50.644;6.184;2023-06-14T09:34:11;26.20;49.40
15900;DHT22;8048;50.644;6.184;2023-06-14T09:36:39;26.20;49.10
15900;DHT22;8048;50.644;6.184;2023-06-14T09:39:05;26.20;48.70
15900;DHT22;8048;50.644;6.184;2023-06-14T09:44:02;26.30;49.50
15900;DHT22;8048;50.644;6.184;2023-06-14T09:46:28;26.50;49.40
15900;DHT22;8048;50.644;6.184;2023-06-14T09:48:57;26.60;48.00
15900;DHT22;8048;50.644;6.184;2023-06-14T09:51:24;26.60;47.10
15900;DHT22;8048;50.644;6.184;2023-06-14T09:53:50;26.80;48.50
15900;DHT22;8048;50.644;6.184;2023-06-14T09:56:31;26.80;48.30
15900;DHT22;8048;50.644;6.184;2023-06-14T09:58:58;27.20;48.10
15900;DHT22;8048;50.644;6.184;2023-06-14T10:01:30;27.30;48.10
15900;DHT22;8048;50.644;6.184;2023-06-14T10:04:06;27.60;47.70
15900;DHT22;8048;50.644;6.184;2023-06-14T10:06:36;28.00;47.80
15900;DHT22;8048;50.644;6.184;2023-06-14T10:09:04;28.50;47.20
15900;DHT22;8048;50.644;6.184;2023-06-14T10:11:31;28.60;44.90
15900;DHT22;8048;50.644;6.184;2023-06-14T10:13:57;28.70;45.00
15900;DHT22;8048;50.644;6.184;2023-06-14T10:16:30;28.80;44.00
15900;DHT22;8048;50.644;6.184;2023-06-14T10:22:00;28.80;44.80
15900;DHT22;8048;50.644;6.184;2023-06-14T10:24:33;28.90;44.80
15900;DHT22;8048;50.644;6.184;2023-06-14T10:26:59;28.90;44.00
15900;DHT22;8048;50.644;6.184;2023-06-14T10:29:28;29.00;43.00
15900;DHT22;8048;50.644;6.184;2023-06-14T10:31:59;28.80;43.90
15900;DHT22;8048;50.644;6.184;2023-06-14T10:34:26;29.10;44.00
15900;DHT22;8048;50.644;6.184;2023-06-14T10:39:32;29.20;44.00
15900;DHT22;8048;50.644;6.184;2023-06-14T10:41:58;29.30;44.20
15900;DHT22;8048;50.644;6.184;2023-06-14T10:46:58;29.70;44.60
15900;DHT22;8048;50.644;6.184;2023-06-14T10:49:44;30.20;44.20
15900;DHT22;8048;50.644;6.184;2023-06-14T10:52:12;30.40;44.30
15900;DHT22;8048;50.644;6.184;2023-06-14T10:55:04;30.60;42.80
15900;DHT22;8048;50.644;6.184;2023-06-14T10:57:41;30.50;43.10
15900;DHT22;8048;50.644;6.184;2023-06-14T11:00:08;30.60;42.10
15900;DHT22;8048;50.644;6.184;2023-06-14T11:02:50;30.60;42.60
15900;DHT22;8048;50.644;6.184;2023-06-14T11:05:24;30.90;41.60
15900;DHT22;8048;50.644;6.184;2023-06-14T11:10:37;31.00;42.30
15900;DHT22;8048;50.644;6.184;2023-06-14T11:13:04;31.00;42.30
15900;DHT22;8048;50.644;6.184;2023-06-14T11:15:30;31.10;42.60
15900;DHT22;8048;50.644;6.184;2023-06-14T11:17:56;30.80;41.30
15900;DHT22;8048;50.644;6.184;2023-06-14T11:20:25;30.80;42.10
15900;DHT22;8048;50.644;6.184;2023-06-14T11:22:52;31.10;42.30
15900;DHT22;8048;50.644;6.184;2023-06-14T11:25:17;31.10;40.80
15900;DHT22;8048;50.644;6.184;2023-06-14T11:27:44;31.40;40.30
15900;DHT22;8048;50.644;6.184;2023-06-14T11:30:10;31.80;41.80
15900;DHT22;8048;50.644;6.184;2023-06-14T11:32:37;32.10;40.10
15900;DHT22;8048;50.644;6.184;2023-06-14T11:35:06;32.30;41.40
15900;DHT22;8048;50.644;6.184;2023-06-14T11:37:32;32.70;40.30
15900;DHT22;8048;50.644;6.184;2023-06-14T11:40:01;32.50;39.10
15900;DHT22;8048;50.644;6.184;2023-06-14T11:42:28;32.00;39.60
15900;DHT22;8048;50.644;6.184;2023-06-14T11:44:54;31.80;40.90
15900;DHT22;8048;50.644;6.184;2023-06-14T11:47:20;31.80;39.60
15900;DHT22;8048;50.644;6.184;2023-06-14T11:49:47;31.60;39.50
15900;DHT22;8048;50.644;6.184;2023-06-14T11:52:13;32.00;39.10
15900;DHT22;8048;50.644;6.184;2023-06-14T11:54:38;32.40;38.40
15900;DHT22;8048;50.644;6.184;2023-06-14T11:57:06;32.90;39.20
15900;DHT22;8048;50.644;6.184;2023-06-14T11:59:38;32.40;37.70
15900;DHT22;8048;50.644;6.184;2023-06-14T12:02:04;32.10;38.70
15900;DHT22;8048;50.644;6.184;2023-06-14T12:04:30;32.40;39.30
15900;DHT22;8048;50.644;6.184;2023-06-14T12:06:55;33.00;39.20
15900;DHT22;8048;50.644;6.184;2023-06-14T12:09:23;33.40;38.00
15900;DHT22;8048;50.644;6.184;2023-06-14T12:11:49;33.90;37.60
15900;DHT22;8048;50.644;6.184;2023-06-14T12:14:15;34.20;36.90
15900;DHT22;8048;50.644;6.184;2023-06-14T12:16:42;34.50;37.40
15900;DHT22;8048;50.644;6.184;2023-06-14T12:19:13;34.60;36.30
15900;DHT22;8048;50.644;6.184;2023-06-14T12:21:39;35.00;35.10
15900;DHT22;8048;50.644;6.184;2023-06-14T12:24:08;34.60;34.80
15900;DHT22;8048;50.644;6.184;2023-06-14T12:26:37;34.20;34.00
15900;DHT22;8048;50.644;6.184;2023-06-14T12:29:05;34.40;36.60
15900;DHT22;8048;50.644;6.184;2023-06-14T12:31:31;34.60;35.80
15900;DHT22;8048;50.644;6.184;2023-06-14T12:33:56;34.40;36.00
15900;DHT22;8048;50.644;6.184;2023-06-14T12:36:22;34.50;35.30
15900;DHT22;8048;50.644;6.184;2023-06-14T12:38:47;34.70;36.40
15900;DHT22;8048;50.644;6.184;2023-06-14T12:41:13;35.00;35.40
15900;DHT22;8048;50.644;6.184;2023-06-14T12:43:40;34.80;36.20
15900;DHT22;8048;50.644;6.184;2023-06-14T12:46:05;34.60;36.00
15900;DHT22;8048;50.644;6.184;2023-06-14T12:48:31;34.70;36.30
15900;DHT22;8048;50.644;6.184;2023-06-14T12:50:57;35.20;35.30
15900;DHT22;8048;50.644;6.184;2023-06-14T12:53:23;35.70;34.50
15900;DHT22;8048;50.644;6.184;2023-06-14T12:55:49;36.10;34.70
15900;DHT22;8048;50.644;6.184;2023-06-14T12:58:15;36.40;35.10
15900;DHT22;8048;50.644;6.184;2023-06-14T13:00:42;35.80;33.90
15900;DHT22;8048;50.644;6.184;2023-06-14T13:03:09;35.40;34.60
15900;DHT22;8048;50.644;6.184;2023-06-14T13:05:35;35.30;34.70
15900;DHT22;8048;50.644;6.184;2023-06-14T13:08:00;35.30;34.80
15900;DHT22;8048;50.644;6.184;2023-06-14T13:10:26;35.50;33.90
15900;DHT22;8048;50.644;6.184;2023-06-14T13:12:52;35.60;35.10
15900;DHT22;8048;50.644;6.184;2023-06-14T13:15:18;35.60;33.40
15900;DHT22;8048;50.644;6.184;2023-06-14T13:17:43;35.80;33.70
15900;DHT22;8048;50.644;6.184;2023-06-14T13:20:13;35.80;33.90
15900;DHT22;8048;50.644;6.184;2023-06-14T13:22:39;35.80;34.30
15900;DHT22;8048;50.644;6.184;2023-06-14T13:25:05;35.80;34.90
15900;DHT22;8048;50.644;6.184;2023-06-14T13:27:31;35.90;34.50
15900;DHT22;8048;50.644;6.184;2023-06-14T13:29:57;35.90;35.20
15900;DHT22;8048;50.644;6.184;2023-06-14T13:32:22;36.20;35.50
15900;DHT22;8048;50.644;6.184;2023-06-14T13:34:48;36.40;34.10
15900;DHT22;8048;50.644;6.184;2023-06-14T13:37:14;36.70;35.40
15900;DHT22;8048;50.644;6.184;2023-06-14T13:39:39;36.70;33.70
15900;DHT22;8048;50.644;6.184;2023-06-14T13:42:05;36.00;34.30
15900;DHT22;8048;50.644;6.184;2023-06-14T13:44:31;35.80;34.20
15900;DHT22;8048;50.644;6.184;2023-06-14T13:46:56;36.00;34.30
15900;DHT22;8048;50.644;6.184;2023-06-14T13:49:22;36.00;34.30
15900;DHT22;8048;50.644;6.184;2023-06-14T13:51:47;35.90;35.20
15900;DHT22;8048;50.644;6.184;2023-06-14T13:54:13;35.70;33.90
15900;DHT22;8048;50.644;6.184;2023-06-14T13:56:40;35.50;34.10
15900;DHT22;8048;50.644;6.184;2023-06-14T13:59:06;35.80;35.40
15900;DHT22;8048;50.644;6.184;2023-06-14T14:01:31;36.00;33.30
15900;DHT22;8048;50.644;6.184;2023-06-14T14:03:57;36.10;33.10
15900;DHT22;8048;50.644;6.184;2023-06-14T14:06:24;36.30;35.20
15900;DHT22;8048;50.644;6.184;2023-06-14T14:08:49;36.40;34.20
15900;DHT22;8048;50.644;6.184;2023-06-14T14:11:15;36.30;33.60
15900;DHT22;8048;50.644;6.184;2023-06-14T14:13:41;36.30;33.60
15900;DHT22;8048;50.644;6.184;2023-06-14T14:16:07;36.10;33.40
15900;DHT22;8048;50.644;6.184;2023-06-14T14:18:33;35.80;33.60
15900;DHT22;8048;50.644;6.184;2023-06-14T14:20:59;35.60;34.10
15900;DHT22;8048;50.644;6.184;2023-06-14T14:23:26;35.60;34.00
15900;DHT22;8048;50.644;6.184;2023-06-14T14:25:51;35.70;33.40
15900;DHT22;8048;50.644;6.184;2023-06-14T14:28:17;35.90;34.30
15900;DHT22;8048;50.644;6.184;2023-06-14T14:30:44;35.60;34.80
15900;DHT22;8048;50.644;6.184;2023-06-14T14:33:11;35.50;34.70
15900;DHT22;8048;50.644;6.184;2023-06-14T14:35:49;35.60;34.70
15900;DHT22;8048;50.644;6.184;2023-06-14T14:38:15;35.90;34.10
15900;DHT22;8048;50.644;6.184;2023-06-14T14:40:42;36.00;34.30
15900;DHT22;8048;50.644;6.184;2023-06-14T14:43:09;36.10;34.50
15900;DHT22;8048;50.644;6.184;2023-06-14T14:45:34;36.10;34.10
15900;DHT22;8048;50.644;6.184;2023-06-14T14:48:01;36.20;34.20
15900;DHT22;8048;50.644;6.184;2023-06-14T14:50:27;35.90;34.20
15900;DHT22;8048;50.644;6.184;2023-06-14T14:52:52;36.10;34.80
15900;DHT22;8048;50.644;6.184;2023-06-14T14:55:18;36.30;34.50
15900;DHT22;8048;50.644;6.184;2023-06-14T14:57:45;36.10;34.10
15900;DHT22;8048;50.644;6.184;2023-06-14T15:00:11;36.00;34.00
15900;DHT22;8048;50.644;6.184;2023-06-14T15:02:37;35.90;34.80
15900;DHT22;8048;50.644;6.184;2023-06-14T15:05:02;35.90;34.50
15900;DHT22;8048;50.644;6.184;2023-06-14T15:07:29;35.80;34.10
15900;DHT22;8048;50.644;6.184;2023-06-14T15:09:55;35.90;34.00
15900;DHT22;8048;50.644;6.184;2023-06-14T15:12:21;35.60;34.50
15900;DHT22;8048;50.644;6.184;2023-06-14T15:14:50;35.50;34.30
15900;DHT22;8048;50.644;6.184;2023-06-14T15:17:16;35.30;35.90
15900;DHT22;8048;50.644;6.184;2023-06-14T15:19:41;35.30;34.60
15900;DHT22;8048;50.644;6.184;2023-06-14T15:22:07;35.40;34.60
15900;DHT22;8048;50.644;6.184;2023-06-14T15:24:32;35.60;36.00
15900;DHT22;8048;50.644;6.184;2023-06-14T15:26:58;35.60;35.00
15900;DHT22;8048;50.644;6.184;2023-06-14T15:29:23;35.20;35.30
15900;DHT22;8048;50.644;6.184;2023-06-14T15:31:49;35.10;35.60
15900;DHT22;8048;50.644;6.184;2023-06-14T15:34:15;34.70;35.30
15900;DHT22;8048;50.644;6.184;2023-06-14T15:36:40;34.30;35.20
15900;DHT22;8048;50.644;6.184;2023-06-14T15:39:06;34.00;35.60
15900;DHT22;8048;50.644;6.184;2023-06-14T15:41:32;33.80;35.80
15900;DHT22;8048;50.644;6.184;2023-06-14T15:43:57;33.90;35.40
15900;DHT22;8048;50.644;6.184;2023-06-14T15:46:23;33.90;35.60
15900;DHT22;8048;50.644;6.184;2023-06-14T15:48:48;33.80;35.50
15900;DHT22;8048;50.644;6.184;2023-06-14T15:51:15;33.80;37.40
15900;DHT22;8048;50.644;6.184;2023-06-14T15:53:40;33.30;35.40
15900;DHT22;8048;50.644;6.184;2023-06-14T15:56:06;32.80;37.00
15900;DHT22;8048;50.644;6.184;2023-06-14T15:58:31;32.40;35.90